Monroe, WI

11:52 AM CDT on May 20, 2018 (GMT -0500)
Monroe Municipal

Weather History for KEFT - February, 2013

Change the Weather History Date:

Friday, February 8, 2013

  Actual Average Record
Temperature  
Mean Temperature 20 °F -  
Max Temperature 26 °F 0 °F 42 °F (1999)
Min Temperature 14 °F - -13 °F (2007)
Degree Days  
Heating Degree Days 45    
Moisture  
Dew Point 20 °F    
Average Humidity 89    
Maximum Humidity 100    
Minimum Humidity 64    
Precipitation  
Precipitation 0.00 in - - ()
Sea Level Pressure  
Sea Level Pressure 30.25 in    
Wind  
Wind Speed 13 mph (NNE)    
Max Wind Speed 23 mph    
Max Gust Speed 33 mph    
Visibility 10 miles    
Events      
Averages and records for this station are not official NWS values.
T = Trace of Precipitation, MM = Missing Value Source: NWS Daily Summary

Daily Weather History Graph

Daily Weather History Graph

Search for Another Location

Airport or City:

Astronomy

Feb. 08, 2013 Rise Set
Actual Time 7:04 AM CST 5:21 PM CST
Civil Twilight 6:34 AM CST 5:50 PM CST
Nautical Twilight 6:01 AM CST 6:24 PM CST
Astronomical Twilight 5:28 AM CST 6:57 PM CST
Moon 5:33 AM CST (2/8) 3:54 PM CST (2/8)
Length of Visible Light 11h 16m
Length of Day
10h 17m
Waning Crescent, 3% of the Moon is Illuminated
Feb 8
Waning Crescent
Feb 10
New
Feb 17
First Quarter
Feb 25
Full
Mar 4
Last Quarter

Hourly Weather History & Observations

Time (CST) Temp. Windchill Dew Point Humidity Pressure Visibility Wind Dir Wind Speed Gust Speed Precip Events Conditions
12:15 AM 24.8 °F 11.1 °F 24.8 °F 100% 30.05 in 10.0 mi North 18.4 mph 26.5 mph N/A   Overcast
12:35 AM 24.8 °F 11.5 °F 23.0 °F 93% 30.06 in 10.0 mi North 17.3 mph 25.3 mph N/A   Overcast
12:55 AM 23.0 °F 8.0 °F 23.0 °F 100% 30.06 in 10.0 mi North 20.7 mph 27.6 mph N/A   Overcast
1:15 AM 23.0 °F 8.7 °F 23.0 °F 100% 30.07 in 10.0 mi North 18.4 mph 24.2 mph N/A   Overcast
1:35 AM 23.0 °F 8.7 °F 23.0 °F 100% 30.09 in 10.0 mi North 18.4 mph 23.0 mph N/A   Overcast
1:55 AM 24.8 °F 11.5 °F 23.0 °F 93% 30.09 in 10.0 mi North 17.3 mph 28.8 mph N/A   Overcast
2:15 AM 23.0 °F 7.6 °F 23.0 °F 100% 30.10 in 10.0 mi North 21.9 mph 29.9 mph N/A   Overcast
2:35 AM 23.0 °F 7.2 °F 23.0 °F 100% 30.11 in 10.0 mi North 23.0 mph 33.4 mph N/A   Overcast
2:55 AM 23.0 °F 7.6 °F 21.2 °F 93% 30.11 in 10.0 mi North 21.9 mph 29.9 mph N/A   Overcast
3:15 AM 23.0 °F 8.7 °F 23.0 °F 100% 30.11 in 10.0 mi North 18.4 mph 28.8 mph N/A   Overcast
3:35 AM 23.0 °F 9.6 °F 23.0 °F 100% 30.12 in 10.0 mi North 16.1 mph - N/A   Overcast
3:55 AM 23.0 °F 9.6 °F 23.0 °F 100% 30.13 in 10.0 mi North 16.1 mph 23.0 mph N/A   Overcast
4:15 AM 23.0 °F 8.3 °F 23.0 °F 100% 30.13 in 10.0 mi North 19.6 mph 28.8 mph N/A   Overcast
4:35 AM 23.0 °F 7.6 °F 23.0 °F 100% 30.15 in 10.0 mi North 21.9 mph 28.8 mph N/A   Overcast
4:55 AM 23.0 °F 8.7 °F 23.0 °F 100% 30.16 in 10.0 mi North 18.4 mph 25.3 mph N/A   Overcast
5:15 AM 23.0 °F 8.3 °F 23.0 °F 100% 30.18 in 10.0 mi North 19.6 mph 23.0 mph N/A   Overcast
5:35 AM 24.8 °F 12.4 °F 23.0 °F 93% 30.19 in 10.0 mi North 15.0 mph 20.7 mph N/A   Overcast
5:55 AM 24.8 °F 11.9 °F 23.0 °F 93% 30.19 in 10.0 mi North 16.1 mph 20.7 mph N/A   Overcast
6:15 AM 24.8 °F 12.4 °F 23.0 °F 93% 30.20 in 10.0 mi North 15.0 mph 19.6 mph N/A   Overcast
6:35 AM 24.8 °F 14.0 °F 23.0 °F 93% 30.20 in 10.0 mi North 11.5 mph 20.7 mph N/A   Overcast
6:55 AM 24.8 °F 13.4 °F 23.0 °F 93% 30.21 in 10.0 mi North 12.7 mph 19.6 mph N/A   Overcast
7:15 AM 23.0 °F 12.4 °F 23.0 °F 100% 30.22 in 10.0 mi North 10.4 mph - N/A   Overcast
7:35 AM 23.0 °F 12.4 °F 21.2 °F 93% 30.24 in 10.0 mi North 10.4 mph 20.7 mph N/A   Overcast
7:55 AM 23.0 °F 9.6 °F 23.0 °F 100% 30.24 in 10.0 mi North 16.1 mph 19.6 mph N/A   Overcast
8:15 AM 23.0 °F 10.6 °F 21.2 °F 93% 30.26 in 10.0 mi North 13.8 mph 18.4 mph N/A   Overcast
8:35 AM 24.8 °F 13.4 °F 23.0 °F 93% 30.27 in 10.0 mi North 12.7 mph 17.3 mph N/A   Overcast
8:55 AM 23.0 °F 11.7 °F 21.2 °F 93% 30.27 in 10.0 mi North 11.5 mph 20.7 mph N/A   Overcast
9:15 AM 24.8 °F 14.6 °F 21.2 °F 86% 30.28 in 10.0 mi NNW 10.4 mph 16.1 mph N/A   Overcast
9:35 AM 23.0 °F 10.6 °F 21.2 °F 93% 30.29 in 10.0 mi North 13.8 mph - N/A   Overcast
9:55 AM 24.8 °F 15.3 °F 21.2 °F 86% 30.29 in 10.0 mi North 9.2 mph 16.1 mph N/A   Overcast
10:15 AM 24.8 °F 14.0 °F 17.6 °F 74% 30.30 in 10.0 mi North 11.5 mph - N/A   Overcast
10:35 AM 23.0 °F 13.1 °F 17.6 °F 80% 30.31 in 10.0 mi North 9.2 mph - N/A   Overcast
10:55 AM 24.8 °F 16.1 °F 17.6 °F 74% 30.31 in 10.0 mi North 8.1 mph - N/A   Overcast
11:15 AM 24.8 °F 14.6 °F 15.8 °F 69% 30.31 in 10.0 mi North 10.4 mph - N/A   Scattered Clouds
11:35 AM 26.6 °F 17.5 °F 15.8 °F 64% 30.31 in 10.0 mi North 9.2 mph - N/A   Scattered Clouds
12:15 PM 26.6 °F 18.2 °F 17.6 °F 69% 30.30 in 10.0 mi North 8.1 mph - N/A   Scattered Clouds
12:35 PM 26.6 °F 18.2 °F 17.6 °F 69% 30.30 in 10.0 mi North 8.1 mph - N/A   Mostly Cloudy
12:55 PM 26.6 °F 19.1 °F 17.6 °F 69% 30.30 in 10.0 mi North 6.9 mph - N/A   Mostly Cloudy
1:15 PM 26.6 °F 17.5 °F 17.6 °F 69% 30.30 in 10.0 mi North 9.2 mph - N/A   Scattered Clouds
1:35 PM 26.6 °F 19.1 °F 17.6 °F 69% 30.31 in 10.0 mi North 6.9 mph - N/A   Clear
1:55 PM 26.6 °F 19.1 °F 17.6 °F 69% 30.31 in 10.0 mi NNE 6.9 mph - N/A   Clear
2:15 PM 26.6 °F 19.1 °F 17.6 °F 69% 30.30 in 10.0 mi North 6.9 mph - N/A   Clear
2:35 PM 26.6 °F 19.1 °F 17.6 °F 69% 30.30 in 10.0 mi North 6.9 mph - N/A   Clear
2:55 PM 26.6 °F 20.0 °F 17.6 °F 69% 30.31 in 10.0 mi NNE 5.8 mph - N/A   Clear
3:15 PM 26.6 °F 21.2 °F 17.6 °F 69% 30.31 in 10.0 mi NE 4.6 mph - N/A   Clear
3:35 PM 26.6 °F 20.0 °F 17.6 °F 69% 30.31 in 10.0 mi NE 5.8 mph - N/A   Clear
3:55 PM 24.8 °F 19.1 °F 17.6 °F 74% 30.31 in 10.0 mi NE 4.6 mph - N/A   Clear
4:15 PM 26.6 °F 22.6 °F 17.6 °F 69% 30.31 in 10.0 mi ENE 3.5 mph - N/A   Clear
4:35 PM 24.8 °F - 15.8 °F 69% 30.32 in 10.0 mi Calm Calm - N/A   Clear
4:55 PM 23.0 °F - 15.8 °F 74% 30.32 in 10.0 mi Calm Calm - N/A   Clear
5:15 PM 23.0 °F 18.4 °F 15.8 °F 74% 30.32 in 10.0 mi East 3.5 mph - N/A   Clear
5:55 PM 21.2 °F 16.4 °F 19.4 °F 93% 30.32 in 10.0 mi East 3.5 mph - N/A   Clear
6:15 PM 21.2 °F 16.4 °F 19.4 °F 93% 30.32 in 10.0 mi East 3.5 mph - N/A   Clear
6:35 PM 21.2 °F - 19.4 °F 93% 30.32 in 10.0 mi Calm Calm - N/A   Clear
6:55 PM 19.4 °F - 19.4 °F 100% 30.33 in 10.0 mi Calm Calm - N/A   Clear
7:15 PM 19.4 °F 12.8 °F 19.4 °F 100% 30.33 in 10.0 mi SE 4.6 mph - N/A   Clear
7:35 PM 19.4 °F 14.3 °F 19.4 °F 100% 30.33 in 10.0 mi ESE 3.5 mph - N/A   Clear
7:55 PM 19.4 °F 12.8 °F 17.6 °F 93% 30.33 in 10.0 mi ESE 4.6 mph - N/A   Clear
8:15 PM 17.6 °F 10.7 °F 17.6 °F 100% 30.33 in 10.0 mi SE 4.6 mph - N/A   Clear
8:35 PM 17.6 °F 10.7 °F 17.6 °F 100% 30.34 in 10.0 mi SE 4.6 mph - N/A   Clear
8:55 PM 17.6 °F 10.7 °F 17.6 °F 100% 30.33 in 10.0 mi ESE 4.6 mph - N/A   Clear
9:15 PM 17.6 °F 9.3 °F 17.6 °F 100% 30.33 in 10.0 mi East 5.8 mph - N/A   Clear
9:35 PM 17.6 °F 10.7 °F 17.6 °F 100% 30.33 in 10.0 mi East 4.6 mph - N/A   Clear
9:55 PM 17.6 °F 9.3 °F 17.6 °F 100% 30.33 in 10.0 mi ESE 5.8 mph - N/A   Clear
10:15 PM 15.8 °F 7.2 °F 15.8 °F 100% 30.34 in 7.0 mi ESE 5.8 mph - N/A   Clear
10:35 PM 15.8 °F 7.2 °F 15.8 °F 100% 30.34 in 7.0 mi SE 5.8 mph - N/A   Clear
10:55 PM 15.8 °F 8.6 °F 15.8 °F 100% 30.32 in 7.0 mi ESE 4.6 mph - N/A   Clear
11:15 PM 15.8 °F 6.1 °F 14.0 °F 93% 30.32 in 4.0 mi SE 6.9 mph - N/A   Clear
11:35 PM 14.0 °F 2.0 °F 14.0 °F 100% 30.33 in 4.0 mi SSE 9.2 mph - N/A   Clear
11:55 PM 15.8 °F 6.1 °F 15.8 °F 100% 30.33 in 3.0 mi SE 6.9 mph - N/A   Mostly Cloudy